Briefing drone pour Varennes-sur-allier

Rechercher une autre localisation

Conditions de vol :


Nous sommes le : Mardi 24 mai 2022
Il est 03:02 UTC (05:02 LT)

Lever de soleil : 03:37 UTC (05:37 LT)
Coucher de soleil : 19:48 UTC (21:48 LT)

Météo

L'essentiel des conditions de vol

VIGILANCE MÉTÉO FRANCE - Allier (03)
Pas de vigilances particulieres
CARTE TEMSI
CARTES DES FRONTS
METAR de LFLV
LFLV 231800Z AUTO VRB03KT 9999 OVC056 19/11 Q1008

Date d'émission: 23/05/2022
Heure d'émission: 18:00 UTC
Vent: Variable 3 KT (6 km/h)
Visibilité horizontale: > 10 km
Plafond :
- Couvert à 5600ft (1707m)
Température: 19 °C
Point de rosée: 11 °C
Humidité: 60%
Pression (QNH): 1008 hPa
Prévision 24h pour Vichy (14 km)
Vent : 223° pour 0 KT (1 km/h)
Temperature Maxi: 9 °C
Temperature Min: 9 °C
Humidité : 90%
Condition : Couvert



Warning: count(): Parameter must be an array or an object that implements Countable in /homepages/6/d509196549/htdocs/droneoxygene/briefing.php on line 743
WEBCAM POUR VARENNES-SUR-ALLIER

Réglementation

Voler en sécurité

CARTES AERONAUTIQUE 1/500.000
CARTES VAC (LFLV)
SUP AIP




Chargement des AIP...
NOTAM (VARENNES-SUR-ALLIER + Terrain à proximité / FIR )




Chargement des NOTAMS...
CONTACT PREFECTURE 03


Avertissement : Les données mises à disposition sont indicatives. Oxygène Drone ne pourra être tenu responsable de dégâts causés aux biens et aux personnes.